sensor_id;sensor_type;location;lat;lon;timestamp;P1;durP1;ratioP1;P2;durP2;ratioP2
70026;SDS011;57506;50.092;15.804;2022-08-19T00:02:04;7.30;;;1.60;;
70026;SDS011;57506;50.092;15.804;2022-08-19T00:04:30;5.83;;;1.80;;
70026;SDS011;57506;50.092;15.804;2022-08-19T00:06:58;5.80;;;1.70;;
70026;SDS011;57506;50.092;15.804;2022-08-19T00:09:24;5.55;;;1.60;;
70026;SDS011;57506;50.092;15.804;2022-08-19T00:11:51;5.05;;;1.90;;
70026;SDS011;57506;50.092;15.804;2022-08-19T00:14:17;6.70;;;1.97;;
70026;SDS011;57506;50.092;15.804;2022-08-19T00:16:45;11.20;;;2.20;;
70026;SDS011;57506;50.092;15.804;2022-08-19T00:19:12;7.93;;;1.98;;
70026;SDS011;57506;50.092;15.804;2022-08-19T00:21:39;5.25;;;1.27;;
70026;SDS011;57506;50.092;15.804;2022-08-19T00:24:05;8.10;;;2.10;;
70026;SDS011;57506;50.092;15.804;2022-08-19T00:26:35;8.13;;;1.83;;
70026;SDS011;57506;50.092;15.804;2022-08-19T00:29:02;7.35;;;1.65;;
70026;SDS011;57506;50.092;15.804;2022-08-19T00:31:29;5.13;;;1.60;;
70026;SDS011;57506;50.092;15.804;2022-08-19T00:33:56;7.53;;;1.77;;
70026;SDS011;57506;50.092;15.804;2022-08-19T00:36:22;8.50;;;2.13;;
70026;SDS011;57506;50.092;15.804;2022-08-19T00:38:47;6.03;;;2.10;;
70026;SDS011;57506;50.092;15.804;2022-08-19T00:41:15;5.00;;;1.97;;
70026;SDS011;57506;50.092;15.804;2022-08-19T00:43:56;5.53;;;1.73;;
70026;SDS011;57506;50.092;15.804;2022-08-19T00:46:23;5.40;;;1.90;;
70026;SDS011;57506;50.092;15.804;2022-08-19T00:48:49;5.90;;;1.83;;
70026;SDS011;57506;50.092;15.804;2022-08-19T00:51:14;7.10;;;1.65;;
70026;SDS011;57506;50.092;15.804;2022-08-19T00:53:40;8.63;;;2.40;;
70026;SDS011;57506;50.092;15.804;2022-08-19T00:56:05;7.38;;;2.30;;
70026;SDS011;57506;50.092;15.804;2022-08-19T00:58:32;6.93;;;2.10;;
70026;SDS011;57506;50.092;15.804;2022-08-19T01:00:59;5.40;;;1.50;;
70026;SDS011;57506;50.092;15.804;2022-08-19T01:03:26;6.25;;;2.00;;
70026;SDS011;57506;50.092;15.804;2022-08-19T01:05:52;5.35;;;2.00;;
70026;SDS011;57506;50.092;15.804;2022-08-19T01:08:20;6.40;;;2.10;;
70026;SDS011;57506;50.092;15.804;2022-08-19T01:10:50;7.10;;;1.90;;
70026;SDS011;57506;50.092;15.804;2022-08-19T01:13:19;7.53;;;2.17;;
70026;SDS011;57506;50.092;15.804;2022-08-19T01:15:55;6.22;;;2.00;;
70026;SDS011;57506;50.092;15.804;2022-08-19T01:18:24;7.32;;;2.13;;
70026;SDS011;57506;50.092;15.804;2022-08-19T01:20:52;8.53;;;1.80;;
70026;SDS011;57506;50.092;15.804;2022-08-19T01:23:21;9.93;;;2.00;;
70026;SDS011;57506;50.092;15.804;2022-08-19T01:25:48;7.97;;;2.00;;
70026;SDS011;57506;50.092;15.804;2022-08-19T01:28:25;7.00;;;2.23;;
70026;SDS011;57506;50.092;15.804;2022-08-19T01:30:52;6.80;;;2.13;;
70026;SDS011;57506;50.092;15.804;2022-08-19T01:33:19;10.45;;;2.13;;
70026;SDS011;57506;50.092;15.804;2022-08-19T01:35:45;5.07;;;1.95;;
70026;SDS011;57506;50.092;15.804;2022-08-19T01:38:19;7.72;;;1.98;;
70026;SDS011;57506;50.092;15.804;2022-08-19T01:40:47;6.97;;;2.00;;
70026;SDS011;57506;50.092;15.804;2022-08-19T01:43:13;8.77;;;2.15;;
70026;SDS011;57506;50.092;15.804;2022-08-19T01:45:38;4.43;;;1.90;;
70026;SDS011;57506;50.092;15.804;2022-08-19T01:48:05;5.95;;;2.10;;
70026;SDS011;57506;50.092;15.804;2022-08-19T01:50:34;5.13;;;1.75;;
70026;SDS011;57506;50.092;15.804;2022-08-19T01:53:00;5.13;;;2.38;;
70026;SDS011;57506;50.092;15.804;2022-08-19T01:55:28;11.33;;;2.40;;
70026;SDS011;57506;50.092;15.804;2022-08-19T01:57:55;9.48;;;2.40;;
70026;SDS011;57506;50.092;15.804;2022-08-19T02:00:26;8.30;;;2.42;;
70026;SDS011;57506;50.092;15.804;2022-08-19T02:02:54;7.15;;;2.67;;
70026;SDS011;57506;50.092;15.804;2022-08-19T02:05:20;8.40;;;2.40;;
70026;SDS011;57506;50.092;15.804;2022-08-19T02:07:46;5.95;;;2.35;;
70026;SDS011;57506;50.092;15.804;2022-08-19T02:10:13;10.32;;;2.38;;
70026;SDS011;57506;50.092;15.804;2022-08-19T02:12:43;5.63;;;2.00;;
70026;SDS011;57506;50.092;15.804;2022-08-19T02:15:09;5.40;;;1.90;;
70026;SDS011;57506;50.092;15.804;2022-08-19T02:17:35;7.78;;;1.70;;
70026;SDS011;57506;50.092;15.804;2022-08-19T02:20:00;7.35;;;2.17;;
70026;SDS011;57506;50.092;15.804;2022-08-19T02:22:26;5.57;;;1.93;;
70026;SDS011;57506;50.092;15.804;2022-08-19T02:24:53;5.80;;;2.35;;
70026;SDS011;57506;50.092;15.804;2022-08-19T02:27:19;7.30;;;2.20;;
70026;SDS011;57506;50.092;15.804;2022-08-19T02:29:46;8.53;;;2.60;;
70026;SDS011;57506;50.092;15.804;2022-08-19T02:32:13;6.05;;;2.13;;
70026;SDS011;57506;50.092;15.804;2022-08-19T02:34:39;8.35;;;2.08;;
70026;SDS011;57506;50.092;15.804;2022-08-19T02:37:06;6.40;;;2.20;;
70026;SDS011;57506;50.092;15.804;2022-08-19T02:39:51;5.67;;;2.10;;
70026;SDS011;57506;50.092;15.804;2022-08-19T02:42:17;6.63;;;2.22;;
70026;SDS011;57506;50.092;15.804;2022-08-19T02:44:43;5.50;;;2.10;;
70026;SDS011;57506;50.092;15.804;2022-08-19T02:47:09;8.63;;;2.03;;
70026;SDS011;57506;50.092;15.804;2022-08-19T02:49:35;5.80;;;2.10;;
70026;SDS011;57506;50.092;15.804;2022-08-19T02:52:01;10.27;;;2.63;;
70026;SDS011;57506;50.092;15.804;2022-08-19T02:54:27;10.43;;;2.38;;
70026;SDS011;57506;50.092;15.804;2022-08-19T02:56:53;6.30;;;2.35;;
70026;SDS011;57506;50.092;15.804;2022-08-19T02:59:19;7.47;;;2.63;;
70026;SDS011;57506;50.092;15.804;2022-08-19T03:01:45;6.38;;;2.17;;
70026;SDS011;57506;50.092;15.804;2022-08-19T03:04:12;6.57;;;2.03;;
70026;SDS011;57506;50.092;15.804;2022-08-19T03:06:40;6.43;;;2.20;;
70026;SDS011;57506;50.092;15.804;2022-08-19T03:09:08;15.60;;;2.92;;
70026;SDS011;57506;50.092;15.804;2022-08-19T03:11:33;12.50;;;3.03;;
70026;SDS011;57506;50.092;15.804;2022-08-19T03:14:00;8.30;;;2.75;;
70026;SDS011;57506;50.092;15.804;2022-08-19T03:16:28;7.27;;;2.63;;
70026;SDS011;57506;50.092;15.804;2022-08-19T03:18:56;9.55;;;2.60;;
70026;SDS011;57506;50.092;15.804;2022-08-19T03:21:25;5.10;;;2.30;;
70026;SDS011;57506;50.092;15.804;2022-08-19T03:23:55;7.10;;;2.38;;
70026;SDS011;57506;50.092;15.804;2022-08-19T03:26:22;7.65;;;2.10;;
70026;SDS011;57506;50.092;15.804;2022-08-19T03:28:47;7.77;;;2.37;;
70026;SDS011;57506;50.092;15.804;2022-08-19T03:31:15;6.68;;;1.98;;
70026;SDS011;57506;50.092;15.804;2022-08-19T03:33:42;8.70;;;2.45;;
70026;SDS011;57506;50.092;15.804;2022-08-19T03:36:10;8.03;;;2.67;;
70026;SDS011;57506;50.092;15.804;2022-08-19T03:38:42;6.15;;;2.50;;
70026;SDS011;57506;50.092;15.804;2022-08-19T03:41:14;7.10;;;2.30;;
70026;SDS011;57506;50.092;15.804;2022-08-19T03:43:43;10.10;;;2.55;;
70026;SDS011;57506;50.092;15.804;2022-08-19T03:46:12;7.20;;;2.50;;
70026;SDS011;57506;50.092;15.804;2022-08-19T03:48:45;7.03;;;2.50;;
70026;SDS011;57506;50.092;15.804;2022-08-19T03:51:16;9.18;;;2.47;;
70026;SDS011;57506;50.092;15.804;2022-08-19T03:53:44;8.45;;;2.53;;
70026;SDS011;57506;50.092;15.804;2022-08-19T03:56:11;9.30;;;2.80;;
70026;SDS011;57506;50.092;15.804;2022-08-19T03:58:38;6.90;;;2.78;;
70026;SDS011;57506;50.092;15.804;2022-08-19T04:01:09;10.37;;;2.80;;
70026;SDS011;57506;50.092;15.804;2022-08-19T04:03:36;7.13;;;3.05;;
70026;SDS011;57506;50.092;15.804;2022-08-19T04:06:10;7.97;;;2.75;;
70026;SDS011;57506;50.092;15.804;2022-08-19T04:08:46;11.32;;;2.90;;
70026;SDS011;57506;50.092;15.804;2022-08-19T04:11:15;7.22;;;2.95;;
70026;SDS011;57506;50.092;15.804;2022-08-19T04:13:42;5.97;;;2.63;;
70026;SDS011;57506;50.092;15.804;2022-08-19T04:16:09;10.43;;;3.00;;
70026;SDS011;57506;50.092;15.804;2022-08-19T04:18:35;8.52;;;2.80;;
70026;SDS011;57506;50.092;15.804;2022-08-19T04:21:03;9.13;;;3.35;;
70026;SDS011;57506;50.092;15.804;2022-08-19T04:23:29;5.85;;;3.22;;
70026;SDS011;57506;50.092;15.804;2022-08-19T04:25:55;8.97;;;2.80;;
70026;SDS011;57506;50.092;15.804;2022-08-19T04:28:21;6.13;;;2.58;;
70026;SDS011;57506;50.092;15.804;2022-08-19T04:30:49;7.87;;;2.70;;
70026;SDS011;57506;50.092;15.804;2022-08-19T04:33:17;12.00;;;2.75;;
70026;SDS011;57506;50.092;15.804;2022-08-19T04:35:45;6.60;;;2.58;;
70026;SDS011;57506;50.092;15.804;2022-08-19T04:38:13;8.07;;;3.63;;
70026;SDS011;57506;50.092;15.804;2022-08-19T04:40:41;7.40;;;2.85;;
70026;SDS011;57506;50.092;15.804;2022-08-19T04:43:26;5.53;;;2.70;;
70026;SDS011;57506;50.092;15.804;2022-08-19T04:45:52;6.57;;;2.53;;
70026;SDS011;57506;50.092;15.804;2022-08-19T04:48:19;9.52;;;2.72;;
70026;SDS011;57506;50.092;15.804;2022-08-19T04:50:54;9.90;;;3.17;;
70026;SDS011;57506;50.092;15.804;2022-08-19T04:53:25;16.77;;;3.77;;
70026;SDS011;57506;50.092;15.804;2022-08-19T04:55:56;9.40;;;3.35;;
70026;SDS011;57506;50.092;15.804;2022-08-19T04:58:24;12.98;;;4.07;;
70026;SDS011;57506;50.092;15.804;2022-08-19T05:00:51;7.95;;;3.55;;
70026;SDS011;57506;50.092;15.804;2022-08-19T05:03:17;8.25;;;3.42;;
70026;SDS011;57506;50.092;15.804;2022-08-19T05:05:44;10.00;;;3.57;;
70026;SDS011;57506;50.092;15.804;2022-08-19T05:08:13;8.18;;;3.75;;
70026;SDS011;57506;50.092;15.804;2022-08-19T05:10:44;10.02;;;3.60;;
70026;SDS011;57506;50.092;15.804;2022-08-19T05:13:12;8.10;;;3.55;;
70026;SDS011;57506;50.092;15.804;2022-08-19T05:15:38;11.25;;;3.92;;
70026;SDS011;57506;50.092;15.804;2022-08-19T05:18:04;14.20;;;4.33;;
70026;SDS011;57506;50.092;15.804;2022-08-19T05:20:48;11.05;;;3.75;;
70026;SDS011;57506;50.092;15.804;2022-08-19T05:23:31;10.35;;;3.30;;
70026;SDS011;57506;50.092;15.804;2022-08-19T05:25:57;7.47;;;3.63;;
70026;SDS011;57506;50.092;15.804;2022-08-19T05:28:23;8.40;;;3.20;;
70026;SDS011;57506;50.092;15.804;2022-08-19T05:30:48;8.20;;;3.10;;
70026;SDS011;57506;50.092;15.804;2022-08-19T05:33:16;8.23;;;3.20;;
70026;SDS011;57506;50.092;15.804;2022-08-19T05:35:44;7.22;;;3.08;;
70026;SDS011;57506;50.092;15.804;2022-08-19T05:38:11;9.55;;;3.30;;
70026;SDS011;57506;50.092;15.804;2022-08-19T05:40:37;10.48;;;2.88;;
70026;SDS011;57506;50.092;15.804;2022-08-19T05:43:04;9.70;;;3.08;;
70026;SDS011;57506;50.092;15.804;2022-08-19T05:45:31;10.10;;;3.63;;
70026;SDS011;57506;50.092;15.804;2022-08-19T05:48:02;8.52;;;3.38;;
70026;SDS011;57506;50.092;15.804;2022-08-19T05:50:28;8.18;;;3.50;;
70026;SDS011;57506;50.092;15.804;2022-08-19T05:52:54;7.63;;;3.50;;
70026;SDS011;57506;50.092;15.804;2022-08-19T05:55:20;7.30;;;3.40;;
70026;SDS011;57506;50.092;15.804;2022-08-19T05:57:46;7.97;;;2.97;;
70026;SDS011;57506;50.092;15.804;2022-08-19T06:00:12;9.80;;;3.50;;
70026;SDS011;57506;50.092;15.804;2022-08-19T06:02:39;9.48;;;3.60;;
70026;SDS011;57506;50.092;15.804;2022-08-19T06:05:05;9.02;;;3.33;;
70026;SDS011;57506;50.092;15.804;2022-08-19T06:07:38;9.55;;;3.72;;
70026;SDS011;57506;50.092;15.804;2022-08-19T06:10:04;14.38;;;4.10;;
70026;SDS011;57506;50.092;15.804;2022-08-19T06:12:32;8.67;;;3.23;;
70026;SDS011;57506;50.092;15.804;2022-08-19T06:15:04;8.10;;;4.20;;
70026;SDS011;57506;50.092;15.804;2022-08-19T06:17:34;7.70;;;3.97;;
70026;SDS011;57506;50.092;15.804;2022-08-19T06:20:01;10.82;;;3.95;;
70026;SDS011;57506;50.092;15.804;2022-08-19T06:22:28;13.77;;;4.28;;
70026;SDS011;57506;50.092;15.804;2022-08-19T06:24:55;8.70;;;4.37;;
70026;SDS011;57506;50.092;15.804;2022-08-19T06:27:21;7.15;;;4.00;;
70026;SDS011;57506;50.092;15.804;2022-08-19T06:29:48;12.07;;;4.10;;
70026;SDS011;57506;50.092;15.804;2022-08-19T06:32:15;6.85;;;4.15;;
70026;SDS011;57506;50.092;15.804;2022-08-19T06:34:43;10.80;;;4.30;;
70026;SDS011;57506;50.092;15.804;2022-08-19T06:37:10;9.07;;;4.07;;
70026;SDS011;57506;50.092;15.804;2022-08-19T06:39:37;10.55;;;4.45;;
70026;SDS011;57506;50.092;15.804;2022-08-19T06:42:05;14.02;;;4.85;;
70026;SDS011;57506;50.092;15.804;2022-08-19T06:44:34;10.87;;;4.77;;
70026;SDS011;57506;50.092;15.804;2022-08-19T06:47:05;13.30;;;5.05;;
70026;SDS011;57506;50.092;15.804;2022-08-19T06:49:34;11.10;;;4.82;;
70026;SDS011;57506;50.092;15.804;2022-08-19T06:52:00;8.82;;;5.00;;
70026;SDS011;57506;50.092;15.804;2022-08-19T06:54:26;8.63;;;4.75;;
70026;SDS011;57506;50.092;15.804;2022-08-19T06:56:54;12.27;;;5.07;;
70026;SDS011;57506;50.092;15.804;2022-08-19T06:59:22;12.88;;;5.55;;
70026;SDS011;57506;50.092;15.804;2022-08-19T07:01:53;11.57;;;5.70;;
70026;SDS011;57506;50.092;15.804;2022-08-19T07:04:28;9.40;;;6.00;;
70026;SDS011;57506;50.092;15.804;2022-08-19T07:07:04;12.00;;;6.10;;
70026;SDS011;57506;50.092;15.804;2022-08-19T07:09:33;10.87;;;6.57;;
70026;SDS011;57506;50.092;15.804;2022-08-19T07:12:02;8.27;;;5.43;;
70026;SDS011;57506;50.092;15.804;2022-08-19T07:14:29;12.63;;;5.60;;
70026;SDS011;57506;50.092;15.804;2022-08-19T07:16:55;11.63;;;5.37;;
70026;SDS011;57506;50.092;15.804;2022-08-19T07:19:22;12.93;;;5.57;;
70026;SDS011;57506;50.092;15.804;2022-08-19T07:21:51;10.00;;;5.15;;
70026;SDS011;57506;50.092;15.804;2022-08-19T07:24:21;12.05;;;5.90;;
70026;SDS011;57506;50.092;15.804;2022-08-19T07:26:52;10.77;;;6.32;;
70026;SDS011;57506;50.092;15.804;2022-08-19T07:29:19;12.25;;;5.82;;
70026;SDS011;57506;50.092;15.804;2022-08-19T07:31:48;8.97;;;6.20;;
70026;SDS011;57506;50.092;15.804;2022-08-19T07:34:15;9.65;;;6.65;;
70026;SDS011;57506;50.092;15.804;2022-08-19T07:36:42;9.70;;;6.30;;
70026;SDS011;57506;50.092;15.804;2022-08-19T07:39:15;9.27;;;6.40;;
70026;SDS011;57506;50.092;15.804;2022-08-19T07:41:43;12.10;;;6.10;;
70026;SDS011;57506;50.092;15.804;2022-08-19T07:44:10;10.33;;;6.13;;
70026;SDS011;57506;50.092;15.804;2022-08-19T07:46:39;11.70;;;6.80;;
70026;SDS011;57506;50.092;15.804;2022-08-19T07:49:06;12.77;;;6.50;;
70026;SDS011;57506;50.092;15.804;2022-08-19T07:51:32;10.30;;;6.72;;
70026;SDS011;57506;50.092;15.804;2022-08-19T07:53:58;12.87;;;7.07;;
70026;SDS011;57506;50.092;15.804;2022-08-19T07:56:24;12.00;;;7.60;;
70026;SDS011;57506;50.092;15.804;2022-08-19T07:58:50;12.00;;;7.80;;
70026;SDS011;57506;50.092;15.804;2022-08-19T08:01:22;11.07;;;7.60;;
70026;SDS011;57506;50.092;15.804;2022-08-19T08:03:52;13.10;;;7.13;;
70026;SDS011;57506;50.092;15.804;2022-08-19T08:06:37;11.75;;;7.82;;
70026;SDS011;57506;50.092;15.804;2022-08-19T08:09:32;13.73;;;7.78;;
70026;SDS011;57506;50.092;15.804;2022-08-19T08:12:03;12.20;;;7.50;;
70026;SDS011;57506;50.092;15.804;2022-08-19T08:14:56;13.02;;;7.88;;
70026;SDS011;57506;50.092;15.804;2022-08-19T08:17:24;13.20;;;7.33;;
70026;SDS011;57506;50.092;15.804;2022-08-19T08:19:51;15.25;;;7.65;;
70026;SDS011;57506;50.092;15.804;2022-08-19T08:22:19;12.75;;;7.60;;
70026;SDS011;57506;50.092;15.804;2022-08-19T08:25:14;11.80;;;7.30;;
70026;SDS011;57506;50.092;15.804;2022-08-19T08:27:44;10.55;;;7.63;;
70026;SDS011;57506;50.092;15.804;2022-08-19T08:30:14;12.27;;;7.90;;
70026;SDS011;57506;50.092;15.804;2022-08-19T08:32:44;12.88;;;7.68;;
70026;SDS011;57506;50.092;15.804;2022-08-19T08:35:12;9.90;;;7.03;;
70026;SDS011;57506;50.092;15.804;2022-08-19T08:37:39;10.90;;;6.63;;
70026;SDS011;57506;50.092;15.804;2022-08-19T08:40:20;9.57;;;7.07;;
70026;SDS011;57506;50.092;15.804;2022-08-19T08:43:03;12.57;;;6.88;;
70026;SDS011;57506;50.092;15.804;2022-08-19T08:51:10;13.88;;;7.18;;
70026;SDS011;57506;50.092;15.804;2022-08-19T08:53:41;9.85;;;6.78;;
70026;SDS011;57506;50.092;15.804;2022-08-19T08:56:09;10.88;;;6.38;;
70026;SDS011;57506;50.092;15.804;2022-08-19T09:01:49;13.37;;;7.27;;
70026;SDS011;57506;50.092;15.804;2022-08-19T09:04:15;15.52;;;7.65;;
70026;SDS011;57506;50.092;15.804;2022-08-19T09:09:40;11.98;;;7.68;;
70026;SDS011;57506;50.092;15.804;2022-08-19T09:15:15;11.32;;;7.15;;
70026;SDS011;57506;50.092;15.804;2022-08-19T09:17:46;14.93;;;7.00;;
70026;SDS011;57506;50.092;15.804;2022-08-19T09:22:39;14.40;;;7.07;;
70026;SDS011;57506;50.092;15.804;2022-08-19T09:25:07;18.97;;;8.03;;
70026;SDS011;57506;50.092;15.804;2022-08-19T09:27:35;12.48;;;7.05;;
70026;SDS011;57506;50.092;15.804;2022-08-19T09:30:03;13.07;;;6.93;;
70026;SDS011;57506;50.092;15.804;2022-08-19T09:32:30;15.30;;;8.07;;
70026;SDS011;57506;50.092;15.804;2022-08-19T09:34:56;12.03;;;7.40;;
70026;SDS011;57506;50.092;15.804;2022-08-19T09:37:24;11.05;;;7.30;;
70026;SDS011;57506;50.092;15.804;2022-08-19T09:39:50;15.15;;;7.70;;
70026;SDS011;57506;50.092;15.804;2022-08-19T09:42:16;13.05;;;7.45;;
70026;SDS011;57506;50.092;15.804;2022-08-19T09:44:42;13.50;;;7.60;;
70026;SDS011;57506;50.092;15.804;2022-08-19T09:47:09;13.27;;;8.27;;
70026;SDS011;57506;50.092;15.804;2022-08-19T09:49:36;15.88;;;7.72;;
70026;SDS011;57506;50.092;15.804;2022-08-19T09:52:04;12.85;;;7.65;;
70026;SDS011;57506;50.092;15.804;2022-08-19T09:54:32;16.00;;;7.10;;
70026;SDS011;57506;50.092;15.804;2022-08-19T09:56:59;11.25;;;6.95;;
70026;SDS011;57506;50.092;15.804;2022-08-19T09:59:28;10.77;;;6.80;;
70026;SDS011;57506;50.092;15.804;2022-08-19T10:01:54;13.90;;;7.22;;
70026;SDS011;57506;50.092;15.804;2022-08-19T10:04:20;11.02;;;6.60;;
70026;SDS011;57506;50.092;15.804;2022-08-19T10:06:47;14.18;;;6.70;;
70026;SDS011;57506;50.092;15.804;2022-08-19T10:09:14;12.15;;;6.93;;
70026;SDS011;57506;50.092;15.804;2022-08-19T10:11:42;12.53;;;6.60;;
70026;SDS011;57506;50.092;15.804;2022-08-19T10:14:14;10.10;;;6.03;;
70026;SDS011;57506;50.092;15.804;2022-08-19T10:16:41;9.65;;;6.35;;
70026;SDS011;57506;50.092;15.804;2022-08-19T10:19:07;12.23;;;6.32;;
70026;SDS011;57506;50.092;15.804;2022-08-19T10:21:34;14.00;;;6.93;;
70026;SDS011;57506;50.092;15.804;2022-08-19T10:24:01;10.23;;;6.00;;
70026;SDS011;57506;50.092;15.804;2022-08-19T10:26:30;13.15;;;6.30;;
70026;SDS011;57506;50.092;15.804;2022-08-19T10:28:57;10.00;;;5.88;;
70026;SDS011;57506;50.092;15.804;2022-08-19T10:31:24;7.95;;;5.78;;
70026;SDS011;57506;50.092;15.804;2022-08-19T10:33:51;15.75;;;5.70;;
70026;SDS011;57506;50.092;15.804;2022-08-19T10:36:24;9.07;;;5.83;;
70026;SDS011;57506;50.092;15.804;2022-08-19T10:38:52;12.15;;;6.22;;
70026;SDS011;57506;50.092;15.804;2022-08-19T10:41:23;11.27;;;6.30;;
70026;SDS011;57506;50.092;15.804;2022-08-19T10:43:52;9.48;;;6.22;;
70026;SDS011;57506;50.092;15.804;2022-08-19T10:46:19;9.60;;;6.07;;
70026;SDS011;57506;50.092;15.804;2022-08-19T10:48:47;9.13;;;6.20;;
70026;SDS011;57506;50.092;15.804;2022-08-19T10:51:12;8.43;;;6.05;;
70026;SDS011;57506;50.092;15.804;2022-08-19T10:53:57;10.18;;;6.32;;
70026;SDS011;57506;50.092;15.804;2022-08-19T10:56:24;10.27;;;6.45;;
70026;SDS011;57506;50.092;15.804;2022-08-19T10:59:09;13.07;;;6.88;;
70026;SDS011;57506;50.092;15.804;2022-08-19T11:01:37;12.40;;;6.93;;
70026;SDS011;57506;50.092;15.804;2022-08-19T11:04:03;11.10;;;6.38;;
70026;SDS011;57506;50.092;15.804;2022-08-19T11:06:33;14.52;;;6.45;;
70026;SDS011;57506;50.092;15.804;2022-08-19T11:08:58;9.33;;;6.47;;
70026;SDS011;57506;50.092;15.804;2022-08-19T11:11:25;12.07;;;6.70;;
70026;SDS011;57506;50.092;15.804;2022-08-19T11:13:53;10.20;;;6.50;;
70026;SDS011;57506;50.092;15.804;2022-08-19T11:16:20;11.23;;;6.53;;
70026;SDS011;57506;50.092;15.804;2022-08-19T11:18:48;12.55;;;6.07;;
70026;SDS011;57506;50.092;15.804;2022-08-19T11:21:20;11.35;;;6.35;;
70026;SDS011;57506;50.092;15.804;2022-08-19T11:23:49;7.20;;;5.78;;
70026;SDS011;57506;50.092;15.804;2022-08-19T11:26:17;10.65;;;6.00;;
70026;SDS011;57506;50.092;15.804;2022-08-19T11:28:45;10.07;;;5.87;;
70026;SDS011;57506;50.092;15.804;2022-08-19T11:31:15;11.23;;;6.05;;
70026;SDS011;57506;50.092;15.804;2022-08-19T11:33:42;10.30;;;5.72;;
70026;SDS011;57506;50.092;15.804;2022-08-19T11:36:09;9.88;;;6.03;;
70026;SDS011;57506;50.092;15.804;2022-08-19T11:38:35;8.30;;;5.77;;
70026;SDS011;57506;50.092;15.804;2022-08-19T11:41:03;8.23;;;5.40;;
70026;SDS011;57506;50.092;15.804;2022-08-19T11:43:32;8.73;;;5.40;;
70026;SDS011;57506;50.092;15.804;2022-08-19T11:45:58;9.13;;;5.60;;
70026;SDS011;57506;50.092;15.804;2022-08-19T11:48:24;11.53;;;6.00;;
70026;SDS011;57506;50.092;15.804;2022-08-19T11:50:51;10.07;;;6.20;;
70026;SDS011;57506;50.092;15.804;2022-08-19T11:53:20;10.10;;;5.53;;
70026;SDS011;57506;50.092;15.804;2022-08-19T11:55:46;7.97;;;5.80;;
70026;SDS011;57506;50.092;15.804;2022-08-19T11:58:13;10.50;;;6.47;;
70026;SDS011;57506;50.092;15.804;2022-08-19T12:00:40;9.60;;;5.78;;
70026;SDS011;57506;50.092;15.804;2022-08-19T12:03:07;9.93;;;5.90;;
70026;SDS011;57506;50.092;15.804;2022-08-19T12:05:33;9.52;;;6.10;;
70026;SDS011;57506;50.092;15.804;2022-08-19T12:08:02;11.07;;;6.22;;
70026;SDS011;57506;50.092;15.804;2022-08-19T12:10:27;9.53;;;6.37;;
70026;SDS011;57506;50.092;15.804;2022-08-19T12:12:53;13.88;;;6.80;;
70026;SDS011;57506;50.092;15.804;2022-08-19T12:15:19;7.00;;;5.87;;
70026;SDS011;57506;50.092;15.804;2022-08-19T12:17:45;10.15;;;6.13;;
70026;SDS011;57506;50.092;15.804;2022-08-19T12:20:11;11.15;;;6.20;;
70026;SDS011;57506;50.092;15.804;2022-08-19T12:22:38;9.77;;;6.30;;
70026;SDS011;57506;50.092;15.804;2022-08-19T12:25:09;8.37;;;6.17;;
70026;SDS011;57506;50.092;15.804;2022-08-19T12:27:36;12.13;;;6.50;;
70026;SDS011;57506;50.092;15.804;2022-08-19T12:30:03;8.35;;;6.18;;
70026;SDS011;57506;50.092;15.804;2022-08-19T12:32:29;11.00;;;6.30;;
70026;SDS011;57506;50.092;15.804;2022-08-19T12:34:55;11.70;;;5.83;;
70026;SDS011;57506;50.092;15.804;2022-08-19T12:37:22;9.77;;;5.53;;
70026;SDS011;57506;50.092;15.804;2022-08-19T12:39:48;9.65;;;5.68;;
70026;SDS011;57506;50.092;15.804;2022-08-19T12:42:14;9.27;;;5.93;;
70026;SDS011;57506;50.092;15.804;2022-08-19T12:44:41;11.70;;;5.72;;
70026;SDS011;57506;50.092;15.804;2022-08-19T12:47:09;9.20;;;5.85;;
70026;SDS011;57506;50.092;15.804;2022-08-19T12:49:36;11.23;;;6.03;;
70026;SDS011;57506;50.092;15.804;2022-08-19T12:52:05;12.00;;;6.17;;
70026;SDS011;57506;50.092;15.804;2022-08-19T12:54:32;12.10;;;6.00;;
70026;SDS011;57506;50.092;15.804;2022-08-19T12:57:04;12.63;;;6.43;;
70026;SDS011;57506;50.092;15.804;2022-08-19T12:59:31;11.15;;;6.82;;
70026;SDS011;57506;50.092;15.804;2022-08-19T13:01:56;13.47;;;6.70;;
70026;SDS011;57506;50.092;15.804;2022-08-19T13:04:22;11.32;;;6.82;;
70026;SDS011;57506;50.092;15.804;2022-08-19T13:06:48;11.45;;;6.32;;
70026;SDS011;57506;50.092;15.804;2022-08-19T13:09:14;11.88;;;6.18;;
70026;SDS011;57506;50.092;15.804;2022-08-19T13:11:40;10.23;;;6.20;;
70026;SDS011;57506;50.092;15.804;2022-08-19T13:14:06;12.38;;;6.15;;
70026;SDS011;57506;50.092;15.804;2022-08-19T13:16:32;8.20;;;5.60;;
70026;SDS011;57506;50.092;15.804;2022-08-19T13:18:58;10.82;;;6.00;;
70026;SDS011;57506;50.092;15.804;2022-08-19T13:21:25;12.07;;;6.20;;
70026;SDS011;57506;50.092;15.804;2022-08-19T13:23:53;11.48;;;5.93;;
70026;SDS011;57506;50.092;15.804;2022-08-19T13:26:19;13.60;;;6.40;;
70026;SDS011;57506;50.092;15.804;2022-08-19T13:28:45;10.25;;;5.63;;
70026;SDS011;57506;50.092;15.804;2022-08-19T13:31:33;10.10;;;6.35;;
70026;SDS011;57506;50.092;15.804;2022-08-19T13:34:19;8.37;;;5.87;;
70026;SDS011;57506;50.092;15.804;2022-08-19T13:36:53;10.75;;;5.97;;
70026;SDS011;57506;50.092;15.804;2022-08-19T13:39:19;8.60;;;5.70;;
70026;SDS011;57506;50.092;15.804;2022-08-19T13:41:46;9.60;;;5.57;;
70026;SDS011;57506;50.092;15.804;2022-08-19T13:44:13;9.70;;;6.07;;
70026;SDS011;57506;50.092;15.804;2022-08-19T13:46:40;9.02;;;5.40;;
70026;SDS011;57506;50.092;15.804;2022-08-19T13:49:09;16.33;;;6.50;;
70026;SDS011;57506;50.092;15.804;2022-08-19T13:51:35;12.00;;;6.63;;
70026;SDS011;57506;50.092;15.804;2022-08-19T13:54:00;10.27;;;6.80;;
70026;SDS011;57506;50.092;15.804;2022-08-19T13:56:26;16.33;;;6.93;;
70026;SDS011;57506;50.092;15.804;2022-08-19T13:58:51;12.60;;;6.53;;
70026;SDS011;57506;50.092;15.804;2022-08-19T14:01:20;14.77;;;7.13;;
70026;SDS011;57506;50.092;15.804;2022-08-19T14:03:46;10.93;;;6.78;;
70026;SDS011;57506;50.092;15.804;2022-08-19T14:06:12;12.70;;;7.03;;
70026;SDS011;57506;50.092;15.804;2022-08-19T14:08:38;10.73;;;6.70;;
70026;SDS011;57506;50.092;15.804;2022-08-19T14:11:06;17.05;;;7.53;;
70026;SDS011;57506;50.092;15.804;2022-08-19T14:13:32;13.35;;;6.75;;
70026;SDS011;57506;50.092;15.804;2022-08-19T14:15:59;10.67;;;6.57;;
70026;SDS011;57506;50.092;15.804;2022-08-19T14:18:24;10.85;;;6.07;;
70026;SDS011;57506;50.092;15.804;2022-08-19T14:20:50;9.57;;;5.70;;
70026;SDS011;57506;50.092;15.804;2022-08-19T14:23:16;11.30;;;6.60;;
70026;SDS011;57506;50.092;15.804;2022-08-19T14:25:43;10.20;;;7.00;;
70026;SDS011;57506;50.092;15.804;2022-08-19T14:28:09;11.48;;;6.13;;
70026;SDS011;57506;50.092;15.804;2022-08-19T14:30:36;10.80;;;7.00;;
70026;SDS011;57506;50.092;15.804;2022-08-19T14:33:03;12.52;;;6.30;;
70026;SDS011;57506;50.092;15.804;2022-08-19T14:35:30;11.27;;;6.20;;
70026;SDS011;57506;50.092;15.804;2022-08-19T14:37:59;8.73;;;5.85;;
70026;SDS011;57506;50.092;15.804;2022-08-19T14:40:26;10.43;;;6.22;;
70026;SDS011;57506;50.092;15.804;2022-08-19T14:42:54;11.63;;;6.05;;
70026;SDS011;57506;50.092;15.804;2022-08-19T14:45:24;13.20;;;6.28;;
70026;SDS011;57506;50.092;15.804;2022-08-19T14:47:52;9.77;;;6.50;;
70026;SDS011;57506;50.092;15.804;2022-08-19T14:50:18;10.48;;;5.97;;
70026;SDS011;57506;50.092;15.804;2022-08-19T14:52:46;14.95;;;6.10;;